createdAt,value
2019-02-07T00:01:02.573Z,5.30
2019-02-07T00:03:29.313Z,5.20
2019-02-07T00:05:56.037Z,6.00
2019-02-07T00:08:22.801Z,5.60
2019-02-07T00:10:49.942Z,5.40
2019-02-07T00:13:17.091Z,5.10
2019-02-07T00:15:43.967Z,4.70
2019-02-07T00:18:11.083Z,4.73
2019-02-07T00:20:38.518Z,5.13
2019-02-07T00:23:08.774Z,5.57
2019-02-07T00:25:36.073Z,5.47
2019-02-07T00:28:04.514Z,5.13
2019-02-07T00:30:31.336Z,5.30
2019-02-07T00:32:58.317Z,4.93
2019-02-07T00:35:28.179Z,4.97
2019-02-07T00:37:55.041Z,4.80
2019-02-07T00:40:21.810Z,4.60
2019-02-07T00:42:48.565Z,5.60
2019-02-07T00:45:17.626Z,5.40
2019-02-07T00:47:46.224Z,5.10
2019-02-07T00:50:13.337Z,5.30
2019-02-07T00:52:40.590Z,5.80
2019-02-07T00:55:09.405Z,6.07
2019-02-07T00:57:36.778Z,9.90
2019-02-07T01:00:05.467Z,7.20
2019-02-07T01:02:32.739Z,7.80
2019-02-07T01:05:00.198Z,6.50
2019-02-07T01:07:27.141Z,6.40
2019-02-07T01:09:54.048Z,7.00
2019-02-07T01:12:20.898Z,7.80
2019-02-07T01:14:47.674Z,8.10
2019-02-07T01:17:14.565Z,7.80
2019-02-07T01:19:44.376Z,7.57
2019-02-07T01:22:11.123Z,8.03
2019-02-07T01:24:37.879Z,7.90
2019-02-07T01:27:04.744Z,7.57
2019-02-07T01:29:31.976Z,8.10
2019-02-07T01:31:59.122Z,9.00
2019-02-07T01:34:26.406Z,9.57
2019-02-07T01:36:53.286Z,9.00
2019-02-07T01:39:20.029Z,8.30
2019-02-07T01:41:46.805Z,7.97
2019-02-07T01:44:13.640Z,7.30
2019-02-07T01:46:40.619Z,6.20
2019-02-07T01:49:07.616Z,6.53
2019-02-07T01:51:37.460Z,6.20
2019-02-07T01:54:05.800Z,7.10
2019-02-07T01:56:32.748Z,7.07
2019-02-07T01:58:59.634Z,7.13
2019-02-07T02:01:26.491Z,7.20
2019-02-07T02:03:53.417Z,7.10
2019-02-07T02:06:20.218Z,7.13
2019-02-07T02:08:46.982Z,6.87
2019-02-07T02:11:13.774Z,6.43
2019-02-07T02:13:40.556Z,7.30
2019-02-07T02:16:07.762Z,6.57
2019-02-07T02:18:34.631Z,6.57
2019-02-07T02:21:01.542Z,6.43
2019-02-07T02:23:28.462Z,6.53
2019-02-07T02:25:55.216Z,6.50
2019-02-07T02:28:22.384Z,5.97
2019-02-07T02:30:49.181Z,7.00
2019-02-07T02:33:16.021Z,6.97
2019-02-07T02:35:42.923Z,8.10
2019-02-07T02:38:10.368Z,6.97
2019-02-07T02:40:37.120Z,7.43
2019-02-07T02:43:04.017Z,8.10
2019-02-07T02:45:37.705Z,7.93
2019-02-07T02:48:01.928Z,7.83
2019-02-07T02:50:28.883Z,7.57
2019-02-07T02:52:55.694Z,7.20
2019-02-07T02:55:42.408Z,7.37
2019-02-07T02:58:09.439Z,7.70
2019-02-07T03:00:55.038Z,8.00
2019-02-07T03:03:30.966Z,7.67
2019-02-07T03:06:15.765Z,7.93
2019-02-07T03:09:19.184Z,7.50
2019-02-07T03:12:05.660Z,8.70
2019-02-07T03:15:01.448Z,8.40
2019-02-07T03:17:46.674Z,7.93
2019-02-07T03:20:25.462Z,8.50
2019-02-07T03:23:10.282Z,7.73
2019-02-07T03:25:59.429Z,8.13
2019-02-07T03:28:44.670Z,8.00
2019-02-07T03:31:43.317Z,8.30
2019-02-07T03:34:28.861Z,8.00
2019-02-07T03:37:15.243Z,8.40
2019-02-07T03:40:04.613Z,7.40
2019-02-07T03:42:53.749Z,7.50
2019-02-07T03:46:02.395Z,7.67
2019-02-07T03:48:44.346Z,7.90
2019-02-07T03:51:31.019Z,8.87
2019-02-07T03:54:26.063Z,7.63
2019-02-07T03:57:18.638Z,8.00
2019-02-07T03:59:58.886Z,8.00
2019-02-07T04:02:57.343Z,7.60
2019-02-07T04:05:34.481Z,7.80
2019-02-07T04:08:26.607Z,8.67
2019-02-07T04:11:11.872Z,8.33
2019-02-07T04:14:04.164Z,8.70
2019-02-07T04:16:53.512Z,8.50
2019-02-07T04:19:55.129Z,8.40
2019-02-07T04:22:40.328Z,8.50
2019-02-07T04:25:25.753Z,9.00
2019-02-07T04:28:11.241Z,8.73
2019-02-07T04:31:03.681Z,8.80
2019-02-07T04:33:47.235Z,9.10
2019-02-07T04:36:39.722Z,8.50
2019-02-07T04:39:27.038Z,9.27
2019-02-07T04:42:12.040Z,10.70
2019-02-07T04:45:04.436Z,10.00
2019-02-07T04:47:49.980Z,10.77
2019-02-07T04:50:39.874Z,10.30
2019-02-07T04:53:44.605Z,10.60
2019-02-07T04:56:37.129Z,10.47
2019-02-07T04:59:21.215Z,10.23
2019-02-07T05:02:06.357Z,13.10
2019-02-07T05:04:59.553Z,12.10
2019-02-07T05:07:44.567Z,14.70
2019-02-07T05:10:29.643Z,15.40
2019-02-07T05:13:14.632Z,14.70
2019-02-07T05:16:04.529Z,14.47
2019-02-07T05:18:56.060Z,15.10
2019-02-07T05:21:40.857Z,16.13
2019-02-07T05:24:15.776Z,16.53
2019-02-07T05:27:04.856Z,16.77
2019-02-07T05:29:53.757Z,15.10
2019-02-07T05:32:49.059Z,14.83
2019-02-07T05:35:26.268Z,16.00
2019-02-07T05:38:24.645Z,14.60
2019-02-07T05:41:14.618Z,15.73
2019-02-07T05:43:58.667Z,14.97
2019-02-07T05:46:51.057Z,15.13
2019-02-07T05:49:41.579Z,14.87
2019-02-07T05:52:34.047Z,16.67
2019-02-07T05:55:23.404Z,16.70
2019-02-07T05:58:08.479Z,15.70
2019-02-07T06:00:57.158Z,14.50
2019-02-07T06:03:42.151Z,15.97
2019-02-07T06:06:37.819Z,15.20
2019-02-07T06:09:26.547Z,14.77
2019-02-07T06:12:11.705Z,14.33
2019-02-07T06:14:57.115Z,13.50
2019-02-07T06:17:50.299Z,13.67
2019-02-07T06:20:28.640Z,14.13
2019-02-07T06:23:12.731Z,13.00
2019-02-07T06:26:11.461Z,12.73
2019-02-07T06:29:09.807Z,11.80
2019-02-07T06:32:06.905Z,12.97
2019-02-07T06:34:57.574Z,12.97
2019-02-07T06:37:43.982Z,12.47
2019-02-07T06:40:40.844Z,13.40
2019-02-07T06:43:30.536Z,11.80
2019-02-07T06:46:26.323Z,12.77
2019-02-07T06:49:11.653Z,12.03
2019-02-07T06:51:51.042Z,11.10
2019-02-07T06:54:43.665Z,12.00
2019-02-07T06:57:29.060Z,11.50
2019-02-07T07:00:34.609Z,10.87
2019-02-07T07:03:24.235Z,10.83
2019-02-07T07:06:06.337Z,11.60
2019-02-07T07:08:53.035Z,12.00
2019-02-07T07:11:42.409Z,10.80
2019-02-07T07:14:44.227Z,11.40
2019-02-07T07:17:35.374Z,11.50
2019-02-07T07:20:35.247Z,12.10
2019-02-07T07:23:27.781Z,11.70
2019-02-07T07:26:16.868Z,12.27
2019-02-07T07:29:01.924Z,12.30
2019-02-07T07:31:55.193Z,12.67
2019-02-07T07:34:40.358Z,11.93
2019-02-07T07:37:39.186Z,12.50
2019-02-07T07:40:20.378Z,11.50
2019-02-07T07:43:01.590Z,11.40
2019-02-07T07:45:40.993Z,11.80
2019-02-07T07:48:41.091Z,11.73
2019-02-07T07:51:37.979Z,11.93
2019-02-07T07:54:37.300Z,11.43
2019-02-07T07:57:29.858Z,11.90
2019-02-07T08:00:19.086Z,11.87
2019-02-07T08:03:15.116Z,12.10
2019-02-07T08:06:02.299Z,11.97
2019-02-07T08:08:47.284Z,11.17
2019-02-07T08:11:39.703Z,11.70
2019-02-07T08:14:15.392Z,10.80
2019-02-07T08:16:59.194Z,12.17
2019-02-07T08:19:46.235Z,11.33
2019-02-07T08:22:31.467Z,11.60
2019-02-07T08:25:20.585Z,11.83
2019-02-07T08:28:05.987Z,10.60
2019-02-07T08:30:55.261Z,10.03
2019-02-07T08:33:54.306Z,11.83
2019-02-07T08:36:39.496Z,10.80
2019-02-07T08:39:37.466Z,10.93
2019-02-07T08:42:36.170Z,10.40
2019-02-07T08:45:22.520Z,10.67
2019-02-07T08:47:59.429Z,10.33
2019-02-07T08:50:44.881Z,10.17
2019-02-07T08:53:28.429Z,10.77
2019-02-07T08:56:23.888Z,11.30
2019-02-07T08:59:04.454Z,9.57
2019-02-07T09:01:54.578Z,10.87
2019-02-07T09:04:43.204Z,9.87
2019-02-07T09:07:41.761Z,11.67
2019-02-07T09:13:32.467Z,11.17
2019-02-07T09:16:13.260Z,11.57
2019-02-07T09:19:05.476Z,10.30
2019-02-07T09:21:46.872Z,13.10
2019-02-07T09:24:33.340Z,10.00
2019-02-07T09:27:18.335Z,10.37
2019-02-07T09:30:03.447Z,8.93
2019-02-07T09:33:00.573Z,9.53
2019-02-07T09:35:42.496Z,10.60
2019-02-07T09:38:27.540Z,11.03
2019-02-07T09:41:20.147Z,11.70
2019-02-07T09:44:24.671Z,10.67
2019-02-07T09:47:10.294Z,10.50
2019-02-07T09:49:46.826Z,10.90
2019-02-07T09:52:44.896Z,11.53
2019-02-07T09:55:22.630Z,11.10
2019-02-07T09:58:07.706Z,11.23
2019-02-07T10:00:57.282Z,10.73
2019-02-07T10:03:33.538Z,10.53
2019-02-07T10:06:18.620Z,11.50
2019-02-07T10:09:05.228Z,10.70
2019-02-07T10:11:51.630Z,10.20
2019-02-07T10:14:34.746Z,9.73
2019-02-07T10:17:19.912Z,10.00
2019-02-07T10:20:18.641Z,10.40
2019-02-07T10:23:03.666Z,9.27
2019-02-07T10:25:52.417Z,10.40
2019-02-07T10:28:54.096Z,9.57
2019-02-07T10:31:46.472Z,9.80
2019-02-07T10:34:35.835Z,9.00
2019-02-07T10:37:21.056Z,9.80
2019-02-07T10:40:11.089Z,9.40
2019-02-07T10:42:51.338Z,9.93
2019-02-07T10:45:44.806Z,9.80
2019-02-07T10:48:31.283Z,8.70
2019-02-07T10:51:28.108Z,9.90
2019-02-07T10:54:20.819Z,10.20
2019-02-07T10:57:13.595Z,11.00
2019-02-07T10:59:50.922Z,9.80
2019-02-07T11:02:32.722Z,10.73
2019-02-07T11:05:14.788Z,9.97
2019-02-07T11:08:03.101Z,9.70
2019-02-07T11:10:46.580Z,10.60
2019-02-07T11:13:38.576Z,11.10
2019-02-07T11:16:18.525Z,10.70
2019-02-07T11:19:03.476Z,10.97
2019-02-07T11:21:43.069Z,10.20
2019-02-07T11:24:29.987Z,10.60
2019-02-07T11:27:16.646Z,11.23
2019-02-07T11:30:08.855Z,11.40
2019-02-07T11:32:46.700Z,11.10
2019-02-07T11:35:31.602Z,10.80
2019-02-07T11:38:24.321Z,11.13
2019-02-07T11:41:16.520Z,10.27
2019-02-07T11:44:06.706Z,11.33
2019-02-07T11:47:05.669Z,10.40
2019-02-07T11:49:51.903Z,10.03
2019-02-07T11:52:41.395Z,11.13
2019-02-07T11:55:27.813Z,10.50
2019-02-07T11:58:06.537Z,11.93
2019-02-07T12:00:51.659Z,13.10
2019-02-07T12:03:33.163Z,12.00
2019-02-07T12:06:25.642Z,12.17
2019-02-07T12:09:01.792Z,11.73
2019-02-07T12:12:03.399Z,11.43
2019-02-07T12:14:48.085Z,10.70
2019-02-07T12:17:34.827Z,10.10
2019-02-07T12:20:23.878Z,10.37
2019-02-07T12:23:08.839Z,9.77
2019-02-07T12:25:48.158Z,9.30
2019-02-07T12:28:46.909Z,10.50
2019-02-07T12:31:31.837Z,8.90
2019-02-07T12:34:05.342Z,10.20
2019-02-07T12:36:51.716Z,9.33
2019-02-07T12:39:36.783Z,9.67
2019-02-07T12:42:26.167Z,10.63
2019-02-07T12:45:17.402Z,9.50
2019-02-07T12:48:04.119Z,9.87
2019-02-07T12:51:08.647Z,9.90
2019-02-07T12:54:03.335Z,10.57
2019-02-07T12:57:01.654Z,10.80
2019-02-07T12:59:57.888Z,10.70
2019-02-07T13:02:47.353Z,9.53
2019-02-07T13:05:43.137Z,10.40
2019-02-07T13:08:25.797Z,10.53
2019-02-07T13:10:58.947Z,10.10
2019-02-07T13:13:37.177Z,9.50
2019-02-07T13:16:23.775Z,9.20
2019-02-07T13:19:22.243Z,8.20
2019-02-07T13:21:59.264Z,9.37
2019-02-07T13:24:48.011Z,8.40
2019-02-07T13:27:34.503Z,10.00
2019-02-07T13:30:30.438Z,9.63
2019-02-07T13:33:22.329Z,8.90
2019-02-07T13:36:00.512Z,9.67
2019-02-07T13:38:59.907Z,9.60
2019-02-07T13:41:52.823Z,10.03
2019-02-07T13:44:39.115Z,10.57
2019-02-07T13:47:44.281Z,10.73
2019-02-07T13:50:32.501Z,10.37
2019-02-07T13:53:34.010Z,9.13
2019-02-07T13:56:13.385Z,8.47
2019-02-07T13:59:04.489Z,9.40
2019-02-07T14:01:51.397Z,10.40
2019-02-07T14:04:47.815Z,9.73
2019-02-07T14:07:32.702Z,10.10
2019-02-07T14:10:08.203Z,8.97
2019-02-07T14:13:04.156Z,9.70
2019-02-07T14:15:53.540Z,9.77
2019-02-07T14:18:38.671Z,9.50
2019-02-07T14:21:24.271Z,9.37
2019-02-07T14:24:20.444Z,9.50
2019-02-07T14:26:55.560Z,8.70
2019-02-07T14:29:43.835Z,8.27
2019-02-07T14:32:33.958Z,9.80
2019-02-07T14:35:12.504Z,8.10
2019-02-07T14:37:50.816Z,8.10
2019-02-07T14:40:27.601Z,8.87
2019-02-07T14:43:09.358Z,9.20
2019-02-07T14:46:01.750Z,7.80
2019-02-07T14:48:29.432Z,8.60
2019-02-07T14:50:56.533Z,9.77
2019-02-07T14:53:23.569Z,9.97
2019-02-07T14:55:50.744Z,9.90
2019-02-07T14:58:18.182Z,8.83
2019-02-07T15:00:45.094Z,8.63
2019-02-07T15:03:12.040Z,10.10
2019-02-07T15:05:39.464Z,9.30
2019-02-07T15:08:06.392Z,8.97
2019-02-07T15:10:33.240Z,9.80
2019-02-07T15:13:01.342Z,8.90
2019-02-07T15:15:28.387Z,9.40
2019-02-07T15:17:55.892Z,9.30
2019-02-07T15:20:26.288Z,9.43
2019-02-07T15:22:51.763Z,10.10
2019-02-07T15:25:20.816Z,9.17
2019-02-07T15:27:47.843Z,8.20
2019-02-07T15:30:15.820Z,10.80
2019-02-07T15:32:43.228Z,10.20
2019-02-07T15:35:16.858Z,9.53
2019-02-07T15:37:44.120Z,9.20
2019-02-07T15:40:13.194Z,11.20
2019-02-07T15:42:40.240Z,9.90
2019-02-07T15:45:08.808Z,8.97
2019-02-07T15:47:37.181Z,8.37
2019-02-07T15:50:05.381Z,10.00
2019-02-07T15:52:34.826Z,9.60
2019-02-07T15:55:03.312Z,9.27
2019-02-07T15:57:30.534Z,9.60
2019-02-07T16:00:00.454Z,12.70
2019-02-07T16:02:31.697Z,10.77
2019-02-07T16:05:00.542Z,8.83
2019-02-07T16:07:27.568Z,8.80
2019-02-07T16:09:56.624Z,9.17
2019-02-07T16:12:26.295Z,8.60
2019-02-07T16:14:53.122Z,8.40
2019-02-07T16:17:20.634Z,8.90
2019-02-07T16:19:48.958Z,8.70
2019-02-07T16:22:16.072Z,8.37
2019-02-07T16:24:43.030Z,8.30
2019-02-07T16:27:09.912Z,8.77
2019-02-07T16:29:37.408Z,8.90
2019-02-07T16:32:04.316Z,10.30
2019-02-07T16:34:31.198Z,8.70
2019-02-07T16:36:58.147Z,9.00
2019-02-07T16:39:25.810Z,8.50
2019-02-07T16:41:52.680Z,8.43
2019-02-07T16:44:19.582Z,8.50
2019-02-07T16:46:46.801Z,8.73
2019-02-07T16:49:13.737Z,9.70
2019-02-07T16:51:41.668Z,10.23
2019-02-07T16:54:08.794Z,9.37
2019-02-07T16:56:35.647Z,9.87
2019-02-07T16:59:03.300Z,9.93
2019-02-07T17:01:30.078Z,10.47
2019-02-07T17:03:57.002Z,8.20
2019-02-07T17:06:24.096Z,8.03
2019-02-07T17:08:50.982Z,9.37
2019-02-07T17:11:19.054Z,7.57
2019-02-07T17:13:47.447Z,7.43
2019-02-07T17:16:14.940Z,8.90
2019-02-07T17:18:41.844Z,7.40
2019-02-07T17:21:12.550Z,8.83
2019-02-07T17:23:37.504Z,9.10
2019-02-07T17:26:04.382Z,10.50
2019-02-07T17:28:31.214Z,8.20
2019-02-07T17:30:57.994Z,8.40
2019-02-07T17:33:25.154Z,8.37
2019-02-07T17:35:52.077Z,9.30
2019-02-07T17:38:18.870Z,8.80
2019-02-07T17:40:46.061Z,9.27
2019-02-07T17:43:12.945Z,8.13
2019-02-07T17:45:40.305Z,9.70
2019-02-07T17:48:08.309Z,8.50
2019-02-07T17:50:35.469Z,7.70
2019-02-07T17:53:03.582Z,8.30
2019-02-07T17:55:32.754Z,8.23
2019-02-07T17:58:03.138Z,10.40
2019-02-07T18:00:46.027Z,9.47
2019-02-07T18:03:12.776Z,7.63
2019-02-07T18:05:40.079Z,8.53
2019-02-07T18:08:07.681Z,7.87
2019-02-07T18:10:34.554Z,8.30
2019-02-07T18:13:02.201Z,7.93
2019-02-07T18:15:29.388Z,7.67
2019-02-07T18:17:57.869Z,8.67
2019-02-07T18:20:24.756Z,9.20
2019-02-07T18:22:54.568Z,10.10
2019-02-07T18:25:21.393Z,9.47
2019-02-07T18:27:48.367Z,9.33
2019-02-07T18:30:16.746Z,9.60
2019-02-07T18:32:43.739Z,9.37
2019-02-07T18:35:10.508Z,8.47
2019-02-07T18:37:37.323Z,8.53
2019-02-07T18:40:05.406Z,8.63
2019-02-07T18:42:32.351Z,11.97
2019-02-07T18:45:01.105Z,9.00
2019-02-07T18:47:28.103Z,9.70
2019-02-07T18:49:55.429Z,9.30
2019-02-07T18:52:22.423Z,8.93
2019-02-07T18:54:51.965Z,9.00
2019-02-07T18:57:18.741Z,9.30
2019-02-07T18:59:45.808Z,10.00
2019-02-07T19:02:14.797Z,8.70
2019-02-07T19:04:42.098Z,8.60
2019-02-07T19:07:09.174Z,9.30
2019-02-07T19:09:36.051Z,8.57
2019-02-07T19:12:04.668Z,9.77
2019-02-07T19:14:31.574Z,9.80
2019-02-07T19:16:59.650Z,8.93
2019-02-07T19:19:29.193Z,9.23
2019-02-07T19:21:57.484Z,8.83
2019-02-07T19:24:24.682Z,9.10
2019-02-07T19:26:51.547Z,9.00
2019-02-07T19:29:18.418Z,10.00
2019-02-07T19:31:45.191Z,9.40
2019-02-07T19:34:12.113Z,8.47
2019-02-07T19:36:38.933Z,10.10
2019-02-07T19:39:08.408Z,9.17
2019-02-07T19:41:35.493Z,8.30
2019-02-07T19:44:02.925Z,8.23
2019-02-07T19:46:29.833Z,8.20
2019-02-07T19:48:59.919Z,10.10
2019-02-07T19:51:26.894Z,8.23
2019-02-07T19:53:56.093Z,8.37
2019-02-07T19:56:23.199Z,8.10
2019-02-07T19:58:50.004Z,9.27
2019-02-07T20:01:20.503Z,7.57
2019-02-07T20:03:47.258Z,6.93
2019-02-07T20:06:18.961Z,7.57
2019-02-07T20:08:46.105Z,6.13
2019-02-07T20:11:12.882Z,6.50
2019-02-07T20:13:39.650Z,6.97
2019-02-07T20:16:06.581Z,7.00
2019-02-07T20:18:33.554Z,7.70
2019-02-07T20:21:00.708Z,7.00
2019-02-07T20:23:27.630Z,6.53
2019-02-07T20:25:54.425Z,6.50
2019-02-07T20:28:21.531Z,6.33
2019-02-07T20:33:16.518Z,6.30
2019-02-07T20:35:43.304Z,5.03
2019-02-07T20:38:12.216Z,5.37
2019-02-07T20:40:39.637Z,5.20
2019-02-07T20:43:06.984Z,5.50
2019-02-07T20:45:34.199Z,3.70
2019-02-07T20:48:01.380Z,4.47
2019-02-07T20:50:29.563Z,3.87
2019-02-07T20:52:56.483Z,4.80
2019-02-07T20:55:23.253Z,4.57
2019-02-07T20:57:50.361Z,4.53
2019-02-07T21:00:29.041Z,4.43
2019-02-07T21:02:56.166Z,4.90
2019-02-07T21:05:23.183Z,5.67
2019-02-07T21:07:50.084Z,4.50
2019-02-07T21:10:18.165Z,5.40
2019-02-07T21:12:45.031Z,4.70
2019-02-07T21:15:18.647Z,4.90
2019-02-07T21:17:43.075Z,4.57
2019-02-07T21:20:11.786Z,4.20
2019-02-07T21:22:38.702Z,4.50
2019-02-07T21:25:09.651Z,4.33
2019-02-07T21:27:36.419Z,3.90
2019-02-07T21:30:03.892Z,3.63
2019-02-07T21:32:31.091Z,4.60
2019-02-07T21:34:58.396Z,3.70
2019-02-07T21:37:25.701Z,4.60
2019-02-07T21:39:53.153Z,4.30
2019-02-07T21:42:22.453Z,3.90
2019-02-07T21:44:50.196Z,3.87
2019-02-07T21:47:17.554Z,4.00
2019-02-07T21:49:44.654Z,3.30
2019-02-07T21:52:11.851Z,3.87
2019-02-07T21:54:38.876Z,3.40
2019-02-07T21:57:06.108Z,4.47
2019-02-07T21:59:32.992Z,3.40
2019-02-07T22:01:59.866Z,3.77
2019-02-07T22:04:26.720Z,3.60
2019-02-07T22:06:53.600Z,4.47
2019-02-07T22:09:20.461Z,3.87
2019-02-07T22:11:47.208Z,4.20
2019-02-07T22:14:15.423Z,4.67
2019-02-07T22:16:42.293Z,5.70
2019-02-07T22:19:09.380Z,4.37
2019-02-07T22:21:36.166Z,5.17
2019-02-07T22:24:05.934Z,4.57
2019-02-07T22:26:32.676Z,4.40
2019-02-07T22:28:59.702Z,4.33
2019-02-07T22:31:26.700Z,4.40
2019-02-07T22:33:54.091Z,5.50
2019-02-07T22:36:20.967Z,5.20
2019-02-07T22:38:47.778Z,5.00
2019-02-07T22:41:14.502Z,4.57
2019-02-07T22:43:41.268Z,5.10
2019-02-07T22:46:08.076Z,4.53
2019-02-07T22:48:35.008Z,4.37
2019-02-07T22:51:01.891Z,5.40
2019-02-07T22:53:31.582Z,4.87
2019-02-07T22:55:58.710Z,4.87
2019-02-07T22:58:25.529Z,5.77
2019-02-07T23:01:23.315Z,4.80
2019-02-07T23:03:56.292Z,5.37
2019-02-07T23:06:23.020Z,5.37
2019-02-07T23:08:49.851Z,4.73
2019-02-07T23:11:16.611Z,5.47
2019-02-07T23:13:46.830Z,5.00
2019-02-07T23:16:13.597Z,4.30
2019-02-07T23:18:40.354Z,5.77
2019-02-07T23:21:07.290Z,5.10
2019-02-07T23:23:34.126Z,4.17
2019-02-07T23:26:00.861Z,4.47
2019-02-07T23:28:27.615Z,4.57
2019-02-07T23:30:54.398Z,5.10
2019-02-07T23:33:21.187Z,5.17
2019-02-07T23:35:47.997Z,4.10
2019-02-07T23:38:18.113Z,5.10
2019-02-07T23:40:45.019Z,5.27
2019-02-07T23:43:11.901Z,4.90
2019-02-07T23:45:38.664Z,4.83
2019-02-07T23:48:05.454Z,4.57
2019-02-07T23:50:32.475Z,4.97
2019-02-07T23:52:59.234Z,3.73
2019-02-07T23:55:26.008Z,4.37
2019-02-07T23:57:52.747Z,4.00
